TimeEDT,TemperatureF,Dew PointF,Humidity,Sea Level PressureIn,VisibilityMPH,Wind Direction,Wind SpeedMPH,Gust SpeedMPH,PrecipitationIn,Events,Conditions,WindDirDegrees,DateUTC
12:15 AM,61.0,58.8,93,30.07,10.0,Calm,Calm,-,N/A,,Clear,0,2013-06-16 04:15:00
12:35 AM,60.6,58.6,93,30.07,10.0,Calm,Calm,-,N/A,,Clear,0,2013-06-16 04:35:00
12:55 AM,60.1,58.1,93,30.07,7.0,Calm,Calm,-,N/A,,Clear,0,2013-06-16 04:55:00
1:15 AM,59.0,57.4,94,30.07,7.0,Calm,Calm,-,N/A,,Clear,0,2013-06-16 05:15:00
1:35 AM,58.5,57.0,95,30.06,7.0,Calm,Calm,-,N/A,,Clear,0,2013-06-16 05:35:00
1:55 AM,58.5,57.0,95,30.07,2.5,Calm,Calm,-,N/A,,Clear,0,2013-06-16 05:55:00
2:15 AM,57.7,56.5,96,30.07,4.0,Calm,Calm,-,N/A,,Clear,0,2013-06-16 06:15:00
2:35 AM,57.6,56.3,96,30.06,7.0,Calm,Calm,-,N/A,,Mostly Cloudy,0,2013-06-16 06:35:00
2:55 AM,59.0,57.7,96,30.05,5.0,Calm,Calm,-,N/A,,Scattered Clouds,0,2013-06-16 06:55:00
3:15 AM,59.2,58.1,96,30.05,7.0,Calm,Calm,-,N/A,,Clear,0,2013-06-16 07:15:00
3:35 AM,59.5,58.3,96,30.05,5.0,Calm,Calm,-,N/A,,Scattered Clouds,0,2013-06-16 07:35:00
3:55 AM,59.9,58.5,95,30.05,7.0,Calm,Calm,-,N/A,,Overcast,0,2013-06-16 07:55:00
4:15 AM,60.1,58.8,96,30.05,7.0,Calm,Calm,-,N/A,,Overcast,0,2013-06-16 08:15:00
4:35 AM,60.3,59.0,96,30.05,5.0,Calm,Calm,-,N/A,,Overcast,0,2013-06-16 08:35:00
4:55 AM,60.4,59.2,96,30.04,5.0,Calm,Calm,-,N/A,,Overcast,0,2013-06-16 08:55:00
5:15 AM,60.4,59.2,96,30.05,5.0,Calm,Calm,-,N/A,,Overcast,0,2013-06-16 09:15:00
5:35 AM,60.4,59.4,96,30.05,7.0,Calm,Calm,-,N/A,,Overcast,0,2013-06-16 09:35:00
5:55 AM,59.9,58.8,96,30.05,7.0,Calm,Calm,-,N/A,,Overcast,0,2013-06-16 09:55:00
6:15 AM,59.9,58.8,96,30.05,7.0,Calm,Calm,-,N/A,,Overcast,0,2013-06-16 10:15:00
6:35 AM,59.9,58.6,96,30.04,4.0,Calm,Calm,-,N/A,,Overcast,0,2013-06-16 10:35:00
6:55 AM,59.7,58.5,96,30.05,5.0,Calm,Calm,-,N/A,,Overcast,0,2013-06-16 10:55:00
7:15 AM,60.8,59.2,94,30.04,5.0,Calm,Calm,-,N/A,,Mostly Cloudy,0,2013-06-16 11:15:00
7:35 AM,61.5,60.1,95,30.03,7.0,Calm,Calm,-,N/A,,Scattered Clouds,0,2013-06-16 11:35:00
7:55 AM,63.9,60.6,89,30.03,10.0,Calm,Calm,-,N/A,,Clear,0,2013-06-16 11:55:00
8:15 AM,66.2,60.3,81,30.02,10.0,Calm,Calm,-,N/A,,Scattered Clouds,0,2013-06-16 12:15:00
8:35 AM,68.0,61.0,78,30.02,10.0,Calm,Calm,-,N/A,,Scattered Clouds,0,2013-06-16 12:35:00
8:55 AM,73.0,62.4,69,30.02,10.0,Calm,Calm,-,N/A,,Scattered Clouds,0,2013-06-16 12:55:00
9:15 AM,71.6,62.1,72,30.01,10.0,Calm,Calm,-,N/A,,Scattered Clouds,0,2013-06-16 13:15:00
9:35 AM,72.9,63.5,72,30.01,10.0,Calm,Calm,-,N/A,,Clear,0,2013-06-16 13:35:00
9:55 AM,72.9,64.0,74,30.01,10.0,ESE,3.5,-,N/A,,Clear,120,2013-06-16 13:55:00
10:15 AM,73.9,64.4,72,30.01,10.0,Calm,Calm,-,N/A,,Mostly Cloudy,0,2013-06-16 14:15:00
10:35 AM,75.0,63.7,68,30.01,10.0,Calm,Calm,-,N/A,,Mostly Cloudy,0,2013-06-16 14:35:00
10:55 AM,75.0,64.0,69,30.02,10.0,Calm,Calm,-,N/A,,Mostly Cloudy,0,2013-06-16 14:55:00
11:15 AM,73.6,62.1,67,30.02,7.0,WSW,5.8,-,N/A,,Overcast,250,2013-06-16 15:15:00
11:35 AM,73.9,62.1,66,30.02,10.0,SSW,4.6,-,N/A,,Overcast,210,2013-06-16 15:35:00
11:55 AM,74.1,61.9,65,30.00,10.0,Calm,Calm,-,N/A,,Overcast,0,2013-06-16 15:55:00
12:15 PM,74.5,61.3,63,30.01,10.0,WSW,4.6,-,N/A,,Overcast,240,2013-06-16 16:15:00
12:35 PM,75.4,61.2,61,30.00,10.0,SSW,3.5,-,N/A,,Scattered Clouds,210,2013-06-16 16:35:00
12:55 PM,76.3,61.3,60,30.00,10.0,WSW,9.2,-,N/A,,Clear,250,2013-06-16 16:55:00
1:15 PM,76.1,61.9,61,30.00,10.0,West,3.5,-,N/A,,Scattered Clouds,260,2013-06-16 17:15:00
1:35 PM,77.5,63.5,62,30.00,10.0,West,6.9,-,N/A,,Scattered Clouds,260,2013-06-16 17:35:00
1:55 PM,77.0,62.1,60,29.99,10.0,West,11.5,20.7,N/A,,Scattered Clouds,260,2013-06-16 17:55:00
2:15 PM,78.1,63.0,60,29.98,10.0,West,3.5,17.3,N/A,,Scattered Clouds,260,2013-06-16 18:15:00
2:35 PM,78.3,62.4,58,29.97,10.0,Calm,Calm,-,N/A,,Scattered Clouds,0,2013-06-16 18:35:00
2:55 PM,78.3,63.0,59,29.96,10.0,SW,5.8,-,N/A,,Clear,220,2013-06-16 18:55:00
3:15 PM,79.0,62.6,57,29.95,10.0,SW,4.6,19.6,N/A,,Clear,220,2013-06-16 19:15:00
3:35 PM,79.3,63.5,58,29.95,10.0,WSW,6.9,-,N/A,,Clear,250,2013-06-16 19:35:00
3:55 PM,79.0,61.2,54,29.95,10.0,West,24.2,36.8,N/A,,Clear,260,2013-06-16 19:55:00
4:15 PM,79.3,61.3,54,29.94,10.0,WSW,21.9,29.9,N/A,,Scattered Clouds,250,2013-06-16 20:15:00
4:35 PM,79.5,61.9,55,29.95,10.0,West,18.4,27.6,N/A,,Scattered Clouds,260,2013-06-16 20:35:00
4:55 PM,79.3,61.5,54,29.96,10.0,WSW,16.1,25.3,N/A,,Scattered Clouds,250,2013-06-16 20:55:00
5:15 PM,78.4,61.7,56,29.96,10.0,WSW,15.0,20.7,N/A,,Scattered Clouds,250,2013-06-16 21:15:00
5:35 PM,77.5,61.5,58,29.96,10.0,West,12.7,26.5,N/A,,Clear,260,2013-06-16 21:35:00
5:55 PM,76.8,61.0,58,29.97,10.0,NW,4.6,17.3,N/A,,Clear,310,2013-06-16 21:55:00
6:15 PM,75.7,60.4,59,29.97,10.0,Calm,Calm,-,N/A,,Scattered Clouds,0,2013-06-16 22:15:00
6:35 PM,75.7,60.1,58,29.97,10.0,Calm,Calm,-,N/A,,Mostly Cloudy,0,2013-06-16 22:35:00
6:55 PM,75.6,60.4,59,29.98,10.0,WNW,5.8,9.2,N/A,,Overcast,290,2013-06-16 22:55:00
7:15 PM,75.7,59.5,57,29.97,10.0,SSW,6.9,-,N/A,,Overcast,200,2013-06-16 23:15:00
7:35 PM,75.4,59.7,58,29.98,10.0,Calm,Calm,-,N/A,,Mostly Cloudy,0,2013-06-16 23:35:00
7:55 PM,76.5,59.9,56,29.99,10.0,Calm,Calm,-,N/A,,Scattered Clouds,0,2013-06-16 23:55:00
8:15 PM,75.2,60.3,60,29.99,10.0,Calm,Calm,-,N/A,,Mostly Cloudy,0,2013-06-17 00:15:00
8:35 PM,75.4,60.6,60,29.99,10.0,Calm,Calm,-,N/A,,Overcast,0,2013-06-17 00:35:00
8:55 PM,75.2,60.6,60,30.00,10.0,Calm,Calm,-,N/A,,Overcast,0,2013-06-17 00:55:00
9:15 PM,75.4,60.8,60,30.00,10.0,Calm,Calm,-,N/A,,Overcast,0,2013-06-17 01:15:00
9:35 PM,74.3,60.8,63,30.00,10.0,South,3.5,-,N/A,,Overcast,170,2013-06-17 01:35:00
9:55 PM,74.3,61.0,63,30.01,10.0,Calm,Calm,-,N/A,,Overcast,0,2013-06-17 01:55:00
10:15 PM,73.9,61.0,64,30.01,10.0,Calm,Calm,-,N/A,,Overcast,0,2013-06-17 02:15:00
10:35 PM,73.9,60.3,62,30.01,10.0,Calm,Calm,-,N/A,,Overcast,0,2013-06-17 02:35:00
10:55 PM,73.4,60.3,63,30.01,10.0,Calm,Calm,-,N/A,,Overcast,0,2013-06-17 02:55:00
11:15 PM,73.6,60.3,63,30.00,10.0,Calm,Calm,-,N/A,,Mostly Cloudy,0,2013-06-17 03:15:00
11:35 PM,73.0,60.8,65,30.00,10.0,Calm,Calm,-,N/A,,Scattered Clouds,0,2013-06-17 03:35:00
11:55 PM,73.2,60.4,64,29.99,10.0,Calm,Calm,-,N/A,,Clear,0,2013-06-17 03:55:00